Time;durP1;ratioP1;P1;durP2;ratioP2;P2;SDS_P1;SDS_P2;PMS_P1;PMS_P2;Temp;Humidity;BMP_temperature;BMP_pressure;BME280_temperature;BME280_humidity;BME280_pressure;Samples;Min_cycle;Max_cycle;Signal;HPM_P1;HPM_P2
2023/10/12 00:00:27;;;;;;;;;;;;;;;;;;5095062;28;19938;-60
2023/10/12 00:02:57;;;;;;;;;;;;;;;;;;5096348;28;19928;-62
2023/10/12 00:05:27;;;;;;;;;;;;;;;;;;5107025;27;19928;-60
2023/10/12 00:07:55;;;;;;;;;;;;;;;;;;5093034;28;19993;-61
2023/10/12 00:10:21;;;;;;;;;;;;;;;;;;5103140;28;19924;-58
2023/10/12 00:12:49;;;;;;;;;;;;;;;;;;5088172;28;19924;-61
2023/10/12 00:15:23;;;;;;;;;;;;;;;;;;5098628;28;20423;-58
2023/10/12 00:17:50;;;;;;;;;;;;;;;;;;5090721;28;19928;-60
2023/10/12 00:20:21;;;;;;;;;;;;;;;;;;5096126;28;19931;-61
2023/10/12 00:22:48;;;;;;;;;;;;;;;;;;5093973;28;19963;-60
2023/10/12 00:25:16;;;;;;;;;;;;;;;;;;5095148;28;20012;-60
2023/10/12 00:27:42;;;;;;;;;;;;;;;;;;5093568;28;19924;-61
2023/10/12 00:30:09;;;;;;;;;;;;;;;;;;5094939;28;19923;-60
2023/10/12 00:32:36;;;;;;;;;;;;;;;;;;5087730;28;19989;-61
2023/10/12 00:35:04;;;;;;;;;;;;;;;;;;5103746;27;19974;-60
2023/10/12 00:37:32;;;;;;;;;;;;;;;;;;5084452;28;20315;-61
2023/10/12 00:40:21;;;;;;;;;;;;;;;;;;5085406;28;19958;-58
2023/10/12 00:42:51;;;;;;;;;;;;;;;;;;5100746;28;19935;-58
2023/10/12 00:45:27;;;;;;;;;;;;;;;;;;5095083;28;19924;-59
2023/10/12 00:47:56;;;;;;;;;;;;;;;;;;5088365;28;19931;-58
2023/10/12 00:50:23;;;;;;;;;;;;;;;;;;5097724;28;19927;-59
2023/10/12 00:52:55;;;;;;;;;;;;;;;;;;5095523;28;19936;-59
2023/10/12 00:55:23;;;;;;;;;;;;;;;;;;5099937;28;19928;-59
2023/10/12 00:57:51;;;;;;;;;;;;;;;;;;5096955;28;19928;-58
2023/10/12 01:00:18;;;;;;;;;;;;;;;;;;5084395;28;19924;-58
2023/10/12 01:03:06;;;;;;;;;;;;;;;;;;5095279;28;19939;-58
2023/10/12 01:05:35;;;;;;;;;;;;;;;;;;5095051;28;19934;-58
2023/10/12 01:08:02;;;;;;;;;;;;;;;;;;5103595;28;19935;-59
2023/10/12 01:10:31;;;;;;;;;;;;;;;;;;5079566;28;19935;-59
2023/10/12 01:13:00;;;;;;;;;;;;;;;;;;5092474;28;20257;-59
2023/10/12 01:15:28;;;;;;;;;;;;;;;;;;5097855;28;19924;-59
2023/10/12 01:17:56;;;;;;;;;;;;;;;;;;5090002;28;20371;-59
2023/10/12 01:20:26;;;;;;;;;;;;;;;;;;5085878;28;20386;-59
2023/10/12 01:22:54;;;;;;;;;;;;;;;;;;5079817;28;19956;-59
2023/10/12 01:25:28;;;;;;;;;;;;;;;;;;5074321;28;19924;-59
2023/10/12 01:27:55;;;;;;;;;;;;;;;;;;5078750;28;19928;-59
2023/10/12 01:30:22;;;;;;;;;;;;;;;;;;5078197;28;20412;-59
2023/10/12 01:32:54;;;;;;;;;;;;;;;;;;5075625;28;19962;-59
2023/10/12 01:35:30;;;;;;;;;;;;;;;;;;5079145;28;19969;-59
2023/10/12 01:38:00;;;;;;;;;;;;;;;;;;5081386;28;19977;-59
2023/10/12 01:40:27;;;;;;;;;;;;;;;;;;5076332;28;20290;-59
2023/10/12 01:42:56;;;;;;;;;;;;;;;;;;5081433;28;19929;-59
2023/10/12 01:45:33;;;;;;;;;;;;;;;;;;5082278;28;20400;-59
2023/10/12 01:48:07;;;;;;;;;;;;;;;;;;5078836;28;19932;-59
2023/10/12 01:50:37;;;;;;;;;;;;;;;;;;5072644;28;19980;-58
2023/10/12 01:53:07;;;;;;;;;;;;;;;;;;5077229;28;19947;-59
2023/10/12 01:55:34;;;;;;;;;;;;;;;;;;5085828;28;19935;-59
2023/10/12 01:58:04;;;;;;;;;;;;;;;;;;5062584;28;19928;-59
2023/10/12 02:00:39;;;;;;;;;;;;;;;;;;5077349;28;20307;-59
2023/10/12 02:03:12;;;;;;;;;;;;;;;;;;5083358;28;20443;-59
2023/10/12 02:05:46;;;;;;;;;;;;;;;;;;5089080;28;20027;-59
2023/10/12 02:08:16;;;;;;;;;;;;;;;;;;5086724;28;19935;-59
2023/10/12 02:10:54;;;;;;;;;;;;;;;;;;5077313;28;19929;-58
2023/10/12 02:13:21;;;;;;;;;;;;;;;;;;5082043;28;19967;-59
2023/10/12 02:15:50;;;;;;;;;;;;;;;;;;5076417;28;20240;-58
2023/10/12 02:18:17;;;;;;;;;;;;;;;;;;5084084;28;19989;-58
2023/10/12 02:20:59;;;;;;;;;;;;;;;;;;5074307;28;19935;-59
2023/10/12 02:23:32;;;;;;;;;;;;;;;;;;5063857;28;20028;-58
2023/10/12 02:25:58;;;;;;;;;;;;;;;;;;5062473;28;20025;-61
2023/10/12 02:28:29;;;;;;;;;;;;;;;;;;5058696;28;20394;-58
2023/10/12 02:30:55;;;;;;;;;;;;;;;;;;5036702;28;19937;-58
2023/10/12 02:33:24;;;;;;;;;;;;;;;;;;5055906;28;20054;-58
2023/10/12 02:35:50;;;;;;;;;;;;;;;;;;5062026;28;20379;-58
2023/10/12 02:38:20;;;;;;;;;;;;;;;;;;5062039;28;19959;-58
2023/10/12 02:40:56;;;;;;;;;;;;;;;;;;5063787;28;20002;-58
2023/10/12 02:43:26;;;;;;;;;;;;;;;;;;5059098;28;19955;-61
2023/10/12 02:45:53;;;;;;;;;;;;;;;;;;5055058;28;19929;-58
2023/10/12 02:48:23;;;;;;;;;;;;;;;;;;5066916;28;19928;-58
2023/10/12 02:50:57;;;;;;;;;;;;;;;;;;5058216;28;20015;-58
2023/10/12 02:53:28;;;;;;;;;;;;;;;;;;5052564;28;19924;-59
2023/10/12 02:55:58;;;;;;;;;;;;;;;;;;5052631;28;19967;-59
2023/10/12 02:58:26;;;;;;;;;;;;;;;;;;5061241;28;19960;-58
2023/10/12 03:00:56;;;;;;;;;;;;;;;;;;5055756;28;19936;-58
2023/10/12 03:03:25;;;;;;;;;;;;;;;;;;5051249;28;19948;-58
2023/10/12 03:05:52;;;;;;;;;;;;;;;;;;5057907;28;19969;-58
2023/10/12 03:08:20;;;;;;;;;;;;;;;;;;5061415;28;19934;-58
2023/10/12 03:11:01;;;;;;;;;;;;;;;;;;5058978;28;19925;-58
2023/10/12 03:13:28;;;;;;;;;;;;;;;;;;5056423;28;19932;-58
2023/10/12 03:15:59;;;;;;;;;;;;;;;;;;5052910;28;19928;-59
2023/10/12 03:18:26;;;;;;;;;;;;;;;;;;5059567;28;19934;-58
2023/10/12 03:21:06;;;;;;;;;;;;;;;;;;5063321;28;20026;-61
2023/10/12 03:23:34;;;;;;;;;;;;;;;;;;5104864;28;20022;-59
2023/10/12 03:26:04;;;;;;;;;;;;;;;;;;5094156;27;20374;-59
2023/10/12 03:28:30;;;;;;;;;;;;;;;;;;5106618;28;19935;-59
2023/10/12 03:31:14;;;;;;;;;;;;;;;;;;5094143;28;19947;-59
2023/10/12 03:33:46;;;;;;;;;;;;;;;;;;5105881;28;19932;-59
2023/10/12 03:36:22;;;;;;;;;;;;;;;;;;5094357;28;19924;-58
2023/10/12 03:39:13;;;;;;;;;;;;;;;;;;5101394;27;19928;-58
2023/10/12 03:41:54;;;;;;;;;;;;;;;;;;5095198;28;19985;-59
2023/10/12 03:44:25;;;;;;;;;;;;;;;;;;5097117;28;20145;-58
2023/10/12 03:47:01;;;;;;;;;;;;;;;;;;5100381;28;19931;-58
2023/10/12 03:49:39;;;;;;;;;;;;;;;;;;5092100;28;20015;-58
2023/10/12 03:52:13;;;;;;;;;;;;;;;;;;5099038;28;19931;-58
2023/10/12 03:54:55;;;;;;;;;;;;;;;;;;5094803;28;20036;-58
2023/10/12 03:57:26;;;;;;;;;;;;;;;;;;5092627;28;19932;-58
2023/10/12 04:00:22;;;;;;;;;;;;;;;;;;5099094;27;19930;-58
2023/10/12 04:02:45;;;;;;;;;;;;;;;;;;5104022;28;19954;-61
2023/10/12 04:05:17;;;;;;;;;;;;;;;;;;5093025;28;20329;-58
2023/10/12 04:08:00;;;;;;;;;;;;;;;;;;5097427;28;19934;-59
2023/10/12 04:13:08;;;;;;;;;;;;;;;;;;5092901;28;19936;-59
2023/10/12 04:16:04;;;;;;;;;;;;;;;;;;5101807;28;19934;-58
2023/10/12 04:18:27;;;;;;;;;;;;;;;;;;5097349;28;20415;-58
2023/10/12 04:20:56;;;;;;;;;;;;;;;;;;5094220;28;19924;-58
2023/10/12 04:23:44;;;;;;;;;;;;;;;;;;5091512;28;19932;-60
2023/10/12 04:26:27;;;;;;;;;;;;;;;;;;5095382;28;19928;-58
2023/10/12 04:28:55;;;;;;;;;;;;;;;;;;5090902;28;19924;-59
2023/10/12 04:31:33;;;;;;;;;;;;;;;;;;5100798;27;21653;-58
2023/10/12 04:34:05;;;;;;;;;;;;;;;;;;5092782;28;19938;-61
2023/10/12 04:36:37;;;;;;;;;;;;;;;;;;5099250;28;19939;-60
2023/10/12 04:39:16;;;;;;;;;;;;;;;;;;5100023;28;20038;-60
2023/10/12 04:41:53;;;;;;;;;;;;;;;;;;5096099;28;19935;-58
2023/10/12 04:47:04;;;;;;;;;;;;;;;;;;5091574;28;20472;-60
2023/10/12 04:49:53;;;;;;;;;;;;;;;;;;5097201;28;20632;-61
2023/10/12 04:52:32;;;;;;;;;;;;;;;;;;5101191;28;20283;-59
2023/10/12 04:57:43;;;;;;;;;;;;;;;;;;5080981;28;19932;-60
2023/10/12 05:00:16;;;;;;;;;;;;;;;;;;5097536;28;19977;-60
2023/10/12 05:02:54;;;;;;;;;;;;;;;;;;5092864;28;19935;-60
2023/10/12 05:08:01;;;;;;;;;;;;;;;;;;5091727;28;19935;-60
2023/10/12 05:10:31;;;;;;;;;;;;;;;;;;5092593;28;19935;-60
2023/10/12 05:13:03;;;;;;;;;;;;;;;;;;5094428;28;19964;-60
2023/10/12 05:15:39;;;;;;;;;;;;;;;;;;5093088;28;19928;-60
2023/10/12 05:18:06;;;;;;;;;;;;;;;;;;5095808;28;20378;-60
2023/10/12 05:20:32;;;;;;;;;;;;;;;;;;5091742;28;20019;-60
2023/10/12 05:22:59;;;;;;;;;;;;;;;;;;5092432;28;20386;-60
2023/10/12 05:25:32;;;;;;;;;;;;;;;;;;5088820;28;19931;-60
2023/10/12 05:28:13;;;;;;;;;;;;;;;;;;5097781;28;19969;-58
2023/10/12 05:30:47;;;;;;;;;;;;;;;;;;5095203;28;19924;-60
2023/10/12 05:33:28;;;;;;;;;;;;;;;;;;5095927;28;19932;-60
2023/10/12 05:35:57;;;;;;;;;;;;;;;;;;5094685;28;19927;-60
2023/10/12 05:38:34;;;;;;;;;;;;;;;;;;5099304;28;20427;-60
2023/10/12 05:41:00;;;;;;;;;;;;;;;;;;5094208;28;19941;-60
2023/10/12 05:43:31;;;;;;;;;;;;;;;;;;5098856;28;19924;-60
2023/10/12 05:46:01;;;;;;;;;;;;;;;;;;5095186;28;19928;-60
2023/10/12 05:48:27;;;;;;;;;;;;;;;;;;5095018;28;19935;-60
2023/10/12 05:50:54;;;;;;;;;;;;;;;;;;5071453;28;19932;-60
2023/10/12 05:53:20;;;;;;;;;;;;;;;;;;5090753;28;19932;-60
2023/10/12 05:55:47;;;;;;;;;;;;;;;;;;5093558;28;19931;-60
2023/10/12 05:58:15;;;;;;;;;;;;;;;;;;5095200;28;19928;-60
2023/10/12 06:00:44;;;;;;;;;;;;;;;;;;5081934;28;19931;-60
2023/10/12 06:03:15;;;;;;;;;;;;;;;;;;5095405;28;19932;-60
2023/10/12 06:05:41;;;;;;;;;;;;;;;;;;5077887;28;19928;-60
2023/10/12 06:08:10;;;;;;;;;;;;;;;;;;5092799;28;19928;-60
2023/10/12 06:10:41;;;;;;;;;;;;;;;;;;5092118;28;19928;-60
2023/10/12 06:13:09;;;;;;;;;;;;;;;;;;5099417;28;19939;-60
2023/10/12 06:15:40;;;;;;;;;;;;;;;;;;5103188;27;20952;-60
2023/10/12 06:18:07;;;;;;;;;;;;;;;;;;5100498;27;20390;-60
2023/10/12 06:20:40;;;;;;;;;;;;;;;;;;5096687;28;20373;-60
2023/10/12 06:23:08;;;;;;;;;;;;;;;;;;5094268;28;20554;-61
2023/10/12 06:25:37;;;;;;;;;;;;;;;;;;5099451;28;19928;-60
2023/10/12 06:28:05;;;;;;;;;;;;;;;;;;5102269;27;20453;-60
2023/10/12 06:30:34;;;;;;;;;;;;;;;;;;5087857;28;19923;-60
2023/10/12 06:33:02;;;;;;;;;;;;;;;;;;5102405;27;19981;-60
2023/10/12 06:35:33;;;;;;;;;;;;;;;;;;5103371;27;19928;-60
2023/10/12 06:41:00;;;;;;;;;;;;;;;;;;5046312;28;20024;-60
2023/10/12 06:46:15;;;;;;;;;;;;;;;;;;5110874;27;19927;-60
2023/10/12 06:48:44;;;;;;;;;;;;;;;;;;5101385;28;19931;-60
2023/10/12 06:51:13;;;;;;;;;;;;;;;;;;5101949;28;20019;-60
2023/10/12 06:53:40;;;;;;;;;;;;;;;;;;5107928;27;19994;-60
2023/10/12 06:56:16;;;;;;;;;;;;;;;;;;5083844;28;20638;-60
2023/10/12 06:58:43;;;;;;;;;;;;;;;;;;5099666;28;20171;-59
2023/10/12 07:01:19;;;;;;;;;;;;;;;;;;5104863;27;20328;-60
2023/10/12 07:03:47;;;;;;;;;;;;;;;;;;5093663;28;19924;-60
2023/10/12 07:06:15;;;;;;;;;;;;;;;;;;5092614;28;19936;-60
2023/10/12 07:08:42;;;;;;;;;;;;;;;;;;5094477;28;20553;-60
2023/10/12 07:11:11;;;;;;;;;;;;;;;;;;5099009;28;19971;-60
2023/10/12 07:13:39;;;;;;;;;;;;;;;;;;5097791;28;19932;-60
2023/10/12 07:16:07;;;;;;;;;;;;;;;;;;5101554;27;19977;-60
2023/10/12 07:18:35;;;;;;;;;;;;;;;;;;5101435;28;19968;-60
2023/10/12 07:21:05;;;;;;;;;;;;;;;;;;5091738;28;20286;-59
2023/10/12 07:23:35;;;;;;;;;;;;;;;;;;5096809;27;20393;-60
2023/10/12 07:26:12;;;;;;;;;;;;;;;;;;5096061;28;19931;-60
2023/10/12 07:28:41;;;;;;;;;;;;;;;;;;5100357;28;19923;-60
2023/10/12 07:34:01;;;;;;;;;;;;;;;;;;5093002;28;19932;-59
2023/10/12 07:36:53;;;;;;;;;;;;;;;;;;5099760;28;19934;-60
2023/10/12 07:39:20;;;;;;;;;;;;;;;;;;5099268;28;20018;-59
2023/10/12 07:41:59;;;;;;;;;;;;;;;;;;5092879;28;19979;-60
2023/10/12 07:44:27;;;;;;;;;;;;;;;;;;5099666;28;20433;-59
2023/10/12 07:46:56;;;;;;;;;;;;;;;;;;5090392;28;20018;-59
2023/10/12 07:49:27;;;;;;;;;;;;;;;;;;5098954;28;19928;-59
2023/10/12 07:52:05;;;;;;;;;;;;;;;;;;5099302;28;19984;-59
2023/10/12 07:54:46;;;;;;;;;;;;;;;;;;5095659;28;20055;-59
2023/10/12 07:57:13;;;;;;;;;;;;;;;;;;5096440;27;19932;-59
2023/10/12 07:59:42;;;;;;;;;;;;;;;;;;5100019;28;20377;-59
2023/10/12 08:02:15;;;;;;;;;;;;;;;;;;5094773;28;19935;-59
2023/10/12 08:04:56;;;;;;;;;;;;;;;;;;5098650;28;19947;-59
2023/10/12 08:07:26;;;;;;;;;;;;;;;;;;5098050;28;19934;-59
2023/10/12 08:09:54;;;;;;;;;;;;;;;;;;5091102;28;19928;-59
2023/10/12 08:12:26;;;;;;;;;;;;;;;;;;5093276;27;19928;-59
2023/10/12 08:14:53;;;;;;;;;;;;;;;;;;5098503;28;19981;-59
2023/10/12 08:17:33;;;;;;;;;;;;;;;;;;5091470;28;20033;-59
2023/10/12 08:20:43;;;;;;;;;;;;;;;;;;5096325;28;19927;-59
2023/10/12 08:23:02;;;;;;;;;;;;;;;;;;5093763;28;19924;-58
2023/10/12 08:25:37;;;;;;;;;;;;;;;;;;5100374;28;20027;-58
2023/10/12 08:28:18;;;;;;;;;;;;;;;;;;5103960;28;20398;-58
2023/10/12 08:31:00;;;;;;;;;;;;;;;;;;5097482;28;19931;-59
2023/10/12 08:38:56;;;;;;;;;;;;;;;;;;5081835;28;19932;-61
2023/10/12 08:41:36;;;;;;;;;;;;;;;;;;5098728;27;19935;-61
2023/10/12 08:44:04;;;;;;;;;;;;;;;;;;5095517;28;20097;-58
2023/10/12 08:46:56;;;;;;;;;;;;;;;;;;5098141;28;19932;-59
2023/10/12 08:49:52;;;;;;;;;;;;;;;;;;5100872;28;19928;-58
2023/10/12 08:52:18;;;;;;;;;;;;;;;;;;5091150;28;19932;-59
2023/10/12 08:54:45;;;;;;;;;;;;;;;;;;5100285;28;19931;-59
2023/10/12 08:57:12;;;;;;;;;;;;;;;;;;5097995;28;19924;-61
2023/10/12 08:59:39;;;;;;;;;;;;;;;;;;5097910;28;19935;-59
2023/10/12 09:02:18;;;;;;;;;;;;;;;;;;5082772;28;19928;-59
2023/10/12 09:04:46;;;;;;;;;;;;;;;;;;5100639;28;19924;-59
2023/10/12 09:07:16;;;;;;;;;;;;;;;;;;5092526;28;20571;-59
2023/10/12 09:09:55;;;;;;;;;;;;;;;;;;5114739;27;20015;-59
2023/10/12 09:12:23;;;;;;;;;;;;;;;;;;5094098;28;19927;-59
2023/10/12 09:14:54;;;;;;;;;;;;;;;;;;5097634;28;19931;-60
2023/10/12 09:17:23;;;;;;;;;;;;;;;;;;5093691;28;19935;-58
2023/10/12 09:19:50;;;;;;;;;;;;;;;;;;5093029;28;19935;-60
2023/10/12 09:22:27;;;;;;;;;;;;;;;;;;5100218;28;19938;-61
2023/10/12 09:24:53;;;;;;;;;;;;;;;;;;5092881;28;20385;-59
2023/10/12 09:27:26;;;;;;;;;;;;;;;;;;5092921;28;19932;-58
2023/10/12 09:29:58;;;;;;;;;;;;;;;;;;5095914;28;19938;-59
2023/10/12 09:32:25;;;;;;;;;;;;;;;;;;5098145;28;19923;-59
2023/10/12 09:35:10;;;;;;;;;;;;;;;;;;5095000;28;20061;-59
2023/10/12 09:37:43;;;;;;;;;;;;;;;;;;5113281;27;19932;-59
2023/10/12 09:40:24;;;;;;;;;;;;;;;;;;5094257;28;19931;-60
2023/10/12 09:42:53;;;;;;;;;;;;;;;;;;5084984;28;20035;-59
2023/10/12 09:45:23;;;;;;;;;;;;;;;;;;5101072;28;19981;-59
2023/10/12 09:47:55;;;;;;;;;;;;;;;;;;5098110;28;19924;-59
2023/10/12 09:50:27;;;;;;;;;;;;;;;;;;5099105;28;19955;-59
2023/10/12 09:52:58;;;;;;;;;;;;;;;;;;5098785;28;19928;-59
2023/10/12 09:55:25;;;;;;;;;;;;;;;;;;5103402;28;19931;-59
2023/10/12 09:57:52;;;;;;;;;;;;;;;;;;5095308;28;20376;-59
2023/10/12 10:00:55;;;;;;;;;;;;;;;;;;5096428;28;19974;-59
2023/10/12 10:03:17;;;;;;;;;;;;;;;;;;5098265;28;19931;-59
2023/10/12 10:05:56;;;;;;;;;;;;;;;;;;5095661;28;20018;-60
2023/10/12 10:08:26;;;;;;;;;;;;;;;;;;5086871;28;19935;-59
2023/10/12 10:10:57;;;;;;;;;;;;;;;;;;5090667;28;19963;-58
2023/10/12 10:13:23;;;;;;;;;;;;;;;;;;5090384;28;19924;-60
2023/10/12 10:15:55;;;;;;;;;;;;;;;;;;5096743;28;20052;-60
2023/10/12 10:18:25;;;;;;;;;;;;;;;;;;5094980;28;19925;-60
2023/10/12 10:20:57;;;;;;;;;;;;;;;;;;5102731;28;19923;-61
2023/10/12 10:23:23;;;;;;;;;;;;;;;;;;5099024;28;19931;-60
2023/10/12 10:25:50;;;;;;;;;;;;;;;;;;5098736;27;19924;-60
2023/10/12 10:28:18;;;;;;;;;;;;;;;;;;5100713;27;20352;-60
2023/10/12 10:30:49;;;;;;;;;;;;;;;;;;5103829;28;20305;-60
2023/10/12 10:33:17;;;;;;;;;;;;;;;;;;5102176;28;20010;-60
2023/10/12 10:35:44;;;;;;;;;;;;;;;;;;5094812;28;19935;-60
2023/10/12 10:38:11;;;;;;;;;;;;;;;;;;5100385;28;20491;-60
2023/10/12 10:40:44;;;;;;;;;;;;;;;;;;5102908;28;19972;-59
2023/10/12 10:43:15;;;;;;;;;;;;;;;;;;5100679;28;19934;-59
2023/10/12 10:45:42;;;;;;;;;;;;;;;;;;5095898;28;19927;-60
2023/10/12 10:48:13;;;;;;;;;;;;;;;;;;5104928;28;20014;-60
2023/10/12 10:50:49;;;;;;;;;;;;;;;;;;5101778;28;19932;-59
2023/10/12 10:53:15;;;;;;;;;;;;;;;;;;5093559;28;19928;-60
2023/10/12 10:55:42;;;;;;;;;;;;;;;;;;5090101;28;19989;-60
2023/10/12 10:58:09;;;;;;;;;;;;;;;;;;5089254;28;20243;-60
2023/10/12 11:00:39;;;;;;;;;;;;;;;;;;5099913;28;19966;-59
2023/10/12 11:03:05;;;;;;;;;;;;;;;;;;5097941;28;19970;-60
2023/10/12 11:05:32;;;;;;;;;;;;;;;;;;5094961;28;19928;-59
2023/10/12 11:08:18;;;;;;;;;;;;;;;;;;5097824;28;20386;-60
2023/10/12 11:13:25;;;;;;;;;;;;;;;;;;5095542;27;20297;-59
2023/10/12 11:15:51;;;;;;;;;;;;;;;;;;5097248;28;19935;-59
2023/10/12 11:18:18;;;;;;;;;;;;;;;;;;5101803;28;19935;-60
2023/10/12 11:20:49;;;;;;;;;;;;;;;;;;5098235;28;19928;-60
2023/10/12 11:23:16;;;;;;;;;;;;;;;;;;5099725;28;19967;-60
2023/10/12 11:25:43;;;;;;;;;;;;;;;;;;5096018;28;20063;-59
2023/10/12 11:28:10;;;;;;;;;;;;;;;;;;5096418;28;19928;-59
2023/10/12 11:30:42;;;;;;;;;;;;;;;;;;5101160;27;19927;-60
2023/10/12 11:33:09;;;;;;;;;;;;;;;;;;5080378;28;19928;-59
2023/10/12 11:35:37;;;;;;;;;;;;;;;;;;5096666;28;20722;-59
2023/10/12 11:38:04;;;;;;;;;;;;;;;;;;5095871;27;19931;-60
2023/10/12 11:40:31;;;;;;;;;;;;;;;;;;5098165;28;19985;-59
2023/10/12 11:42:58;;;;;;;;;;;;;;;;;;5096167;28;19924;-60
2023/10/12 11:45:32;;;;;;;;;;;;;;;;;;5094126;28;19928;-59
2023/10/12 11:48:00;;;;;;;;;;;;;;;;;;5083567;28;20331;-60
2023/10/12 11:50:26;;;;;;;;;;;;;;;;;;5097088;28;19970;-60
2023/10/12 11:52:53;;;;;;;;;;;;;;;;;;5096027;28;19928;-60
2023/10/12 11:55:19;;;;;;;;;;;;;;;;;;5097349;28;19936;-59
2023/10/12 11:57:48;;;;;;;;;;;;;;;;;;5103602;28;19927;-60
2023/10/12 12:00:21;;;;;;;;;;;;;;;;;;5085112;28;19928;-60
2023/10/12 12:02:47;;;;;;;;;;;;;;;;;;5091494;28;19924;-60
2023/10/12 12:05:16;;;;;;;;;;;;;;;;;;5098601;28;19931;-60
2023/10/12 12:07:43;;;;;;;;;;;;;;;;;;5095587;28;19923;-60
2023/10/12 12:10:13;;;;;;;;;;;;;;;;;;5095083;28;19928;-60
2023/10/12 12:12:40;;;;;;;;;;;;;;;;;;5098376;28;20369;-60
2023/10/12 12:15:06;;;;;;;;;;;;;;;;;;5099065;28;19924;-60
2023/10/12 12:17:35;;;;;;;;;;;;;;;;;;5099220;28;19924;-60
2023/10/12 12:20:05;;;;;;;;;;;;;;;;;;5093652;28;19978;-59
2023/10/12 12:22:41;;;;;;;;;;;;;;;;;;5092105;28;20445;-59
2023/10/12 12:25:16;;;;;;;;;;;;;;;;;;5090735;28;19982;-60
2023/10/12 12:27:48;;;;;;;;;;;;;;;;;;5081243;28;20429;-60
2023/10/12 12:30:23;;;;;;;;;;;;;;;;;;5089169;28;19928;-59
2023/10/12 12:32:50;;;;;;;;;;;;;;;;;;5076013;28;19932;-59
2023/10/12 12:35:16;;;;;;;;;;;;;;;;;;5093404;28;19939;-60
2023/10/12 12:37:43;;;;;;;;;;;;;;;;;;5093115;28;19967;-59
2023/10/12 12:40:27;;;;;;;;;;;;;;;;;;5082174;28;19928;-60
2023/10/12 12:42:54;;;;;;;;;;;;;;;;;;5096456;27;20799;-60
2023/10/12 12:45:20;;;;;;;;;;;;;;;;;;5089377;28;20382;-60
2023/10/12 12:47:47;;;;;;;;;;;;;;;;;;5092112;28;19957;-59
2023/10/12 12:50:13;;;;;;;;;;;;;;;;;;5091956;28;20385;-59
2023/10/12 12:52:40;;;;;;;;;;;;;;;;;;5074294;28;20419;-59
2023/10/12 12:55:10;;;;;;;;;;;;;;;;;;5088275;28;19953;-59
2023/10/12 12:57:38;;;;;;;;;;;;;;;;;;5096285;28;19963;-59
2023/10/12 13:00:10;;;;;;;;;;;;;;;;;;5097878;28;19928;-59
2023/10/12 13:02:37;;;;;;;;;;;;;;;;;;5096676;28;19932;-59
2023/10/12 13:05:04;;;;;;;;;;;;;;;;;;5094644;28;20679;-59
2023/10/12 13:07:31;;;;;;;;;;;;;;;;;;5084076;28;19927;-59
2023/10/12 13:09:58;;;;;;;;;;;;;;;;;;5092086;28;20467;-59
2023/10/12 13:12:24;;;;;;;;;;;;;;;;;;5091406;28;19927;-59
2023/10/12 13:14:51;;;;;;;;;;;;;;;;;;5097107;28;20153;-59
2023/10/12 13:17:18;;;;;;;;;;;;;;;;;;5097626;28;20039;-59
2023/10/12 13:19:45;;;;;;;;;;;;;;;;;;5091484;28;20370;-59
2023/10/12 13:22:11;;;;;;;;;;;;;;;;;;5090137;28;19935;-60
2023/10/12 13:24:38;;;;;;;;;;;;;;;;;;5079473;28;19938;-58
2023/10/12 13:27:04;;;;;;;;;;;;;;;;;;5081907;28;19940;-59
2023/10/12 13:29:32;;;;;;;;;;;;;;;;;;5085071;28;19928;-59
2023/10/12 13:31:59;;;;;;;;;;;;;;;;;;5076796;28;20027;-61
2023/10/12 13:34:36;;;;;;;;;;;;;;;;;;5075682;28;20005;-62
2023/10/12 13:37:06;;;;;;;;;;;;;;;;;;5064551;28;20382;-61
2023/10/12 13:39:33;;;;;;;;;;;;;;;;;;5078075;28;20382;-59
2023/10/12 13:41:59;;;;;;;;;;;;;;;;;;5077746;28;19936;-59
2023/10/12 13:44:26;;;;;;;;;;;;;;;;;;5078035;28;19928;-58
2023/10/12 13:46:52;;;;;;;;;;;;;;;;;;5081882;28;19927;-59
2023/10/12 13:49:22;;;;;;;;;;;;;;;;;;5085044;28;19932;-60
2023/10/12 13:51:50;;;;;;;;;;;;;;;;;;5076282;28;19989;-61
2023/10/12 13:54:17;;;;;;;;;;;;;;;;;;5077524;28;19928;-60
2023/10/12 13:56:48;;;;;;;;;;;;;;;;;;5073400;28;19979;-59
2023/10/12 13:59:16;;;;;;;;;;;;;;;;;;5078070;28;20401;-59
2023/10/12 14:01:42;;;;;;;;;;;;;;;;;;5081454;28;19968;-59
2023/10/12 14:07:02;;;;;;;;;;;;;;;;;;5127200;27;20022;-58
2023/10/12 14:09:31;;;;;;;;;;;;;;;;;;5133720;27;19969;-59
2023/10/12 14:11:57;;;;;;;;;;;;;;;;;;5138164;27;20014;-59
2023/10/12 14:14:24;;;;;;;;;;;;;;;;;;5128174;27;19927;-59
2023/10/12 14:16:51;;;;;;;;;;;;;;;;;;5131674;27;19928;-59
2023/10/12 14:19:22;;;;;;;;;;;;;;;;;;5134120;27;19927;-59
2023/10/12 14:21:51;;;;;;;;;;;;;;;;;;5130539;27;20069;-59
2023/10/12 14:24:17;;;;;;;;;;;;;;;;;;5128496;27;19931;-59
2023/10/12 14:26:44;;;;;;;;;;;;;;;;;;5132806;27;19938;-59
2023/10/12 14:29:10;;;;;;;;;;;;;;;;;;5121295;27;19950;-59
2023/10/12 14:31:37;;;;;;;;;;;;;;;;;;5129764;27;19962;-59
2023/10/12 14:34:06;;;;;;;;;;;;;;;;;;5131598;27;20224;-59
2023/10/12 14:36:33;;;;;;;;;;;;;;;;;;5129519;27;19959;-59
2023/10/12 14:39:00;;;;;;;;;;;;;;;;;;5131449;27;19928;-59
2023/10/12 14:41:27;;;;;;;;;;;;;;;;;;5130440;27;19932;-59
2023/10/12 14:43:55;;;;;;;;;;;;;;;;;;5140019;27;19932;-60
2023/10/12 14:46:23;;;;;;;;;;;;;;;;;;5123464;27;19949;-61
2023/10/12 14:48:54;;;;;;;;;;;;;;;;;;5128788;27;20019;-60
2023/10/12 14:51:25;;;;;;;;;;;;;;;;;;5120919;27;20349;-60
2023/10/12 14:53:52;;;;;;;;;;;;;;;;;;5132836;27;20014;-60
2023/10/12 14:56:18;;;;;;;;;;;;;;;;;;5124091;27;20329;-60
2023/10/12 14:58:45;;;;;;;;;;;;;;;;;;5130731;27;19936;-61
2023/10/12 15:01:13;;;;;;;;;;;;;;;;;;5133050;27;19978;-60
2023/10/12 15:03:41;;;;;;;;;;;;;;;;;;5131472;27;20012;-60
2023/10/12 15:06:08;;;;;;;;;;;;;;;;;;5134660;27;19931;-60
2023/10/12 15:08:36;;;;;;;;;;;;;;;;;;5127095;27;19927;-61
2023/10/12 15:11:05;;;;;;;;;;;;;;;;;;5139977;27;19931;-60
2023/10/12 15:13:32;;;;;;;;;;;;;;;;;;5130873;27;20377;-60
2023/10/12 15:15:59;;;;;;;;;;;;;;;;;;5104640;27;20266;-60
2023/10/12 15:18:25;;;;;;;;;;;;;;;;;;5110236;27;19938;-60
2023/10/12 15:20:55;;;;;;;;;;;;;;;;;;5113922;27;20074;-60
2023/10/12 15:23:24;;;;;;;;;;;;;;;;;;5117076;27;20388;-60
2023/10/12 15:25:51;;;;;;;;;;;;;;;;;;5117905;27;19938;-61
2023/10/12 15:28:17;;;;;;;;;;;;;;;;;;5111347;27;19928;-60
2023/10/12 15:30:44;;;;;;;;;;;;;;;;;;5112300;27;20378;-60
2023/10/12 15:33:11;;;;;;;;;;;;;;;;;;5115790;27;19928;-60
2023/10/12 15:35:37;;;;;;;;;;;;;;;;;;5110680;27;19927;-60
2023/10/12 15:38:04;;;;;;;;;;;;;;;;;;5106874;27;20438;-60
2023/10/12 15:40:32;;;;;;;;;;;;;;;;;;5116881;27;19928;-60
2023/10/12 15:42:59;;;;;;;;;;;;;;;;;;5120129;27;19927;-60
2023/10/12 15:45:26;;;;;;;;;;;;;;;;;;5112720;27;20131;-61
2023/10/12 15:47:56;;;;;;;;;;;;;;;;;;5096588;27;19964;-60
2023/10/12 15:50:23;;;;;;;;;;;;;;;;;;5121880;27;20059;-60
2023/10/12 15:52:50;;;;;;;;;;;;;;;;;;5114054;27;19927;-60
2023/10/12 15:55:18;;;;;;;;;;;;;;;;;;5114233;27;19987;-60
2023/10/12 15:57:44;;;;;;;;;;;;;;;;;;5111931;27;20029;-60
2023/10/12 16:00:22;;;;;;;;;;;;;;;;;;5115497;27;20286;-60
2023/10/12 16:02:49;;;;;;;;;;;;;;;;;;5120846;27;19934;-60
2023/10/12 16:05:16;;;;;;;;;;;;;;;;;;5103776;27;19928;-60
2023/10/12 16:07:42;;;;;;;;;;;;;;;;;;5114860;27;20261;-60
2023/10/12 16:10:09;;;;;;;;;;;;;;;;;;5113783;27;19934;-60
2023/10/12 16:12:36;;;;;;;;;;;;;;;;;;5118286;27;19928;-60
2023/10/12 16:15:03;;;;;;;;;;;;;;;;;;5115739;27;19927;-60
2023/10/12 16:17:29;;;;;;;;;;;;;;;;;;5110920;27;19931;-60
2023/10/12 16:19:57;;;;;;;;;;;;;;;;;;5114003;27;19957;-60
2023/10/12 16:22:23;;;;;;;;;;;;;;;;;;5117501;27;19930;-60
2023/10/12 16:24:52;;;;;;;;;;;;;;;;;;5111221;27;19954;-60
2023/10/12 16:27:18;;;;;;;;;;;;;;;;;;5115827;27;19963;-60
2023/10/12 16:29:45;;;;;;;;;;;;;;;;;;5107699;27;20008;-60
2023/10/12 16:32:16;;;;;;;;;;;;;;;;;;5115734;27;20685;-60
2023/10/12 16:34:43;;;;;;;;;;;;;;;;;;5115263;27;19938;-60
2023/10/12 16:37:09;;;;;;;;;;;;;;;;;;5114457;27;19935;-60
2023/10/12 16:39:38;;;;;;;;;;;;;;;;;;5121865;27;20440;-60
2023/10/12 16:42:06;;;;;;;;;;;;;;;;;;5117386;27;20377;-60
2023/10/12 16:44:33;;;;;;;;;;;;;;;;;;5111212;27;19924;-60
2023/10/12 16:47:00;;;;;;;;;;;;;;;;;;5118566;27;20016;-60
2023/10/12 16:49:27;;;;;;;;;;;;;;;;;;5116794;27;19923;-60
2023/10/12 16:51:54;;;;;;;;;;;;;;;;;;5117462;27;19923;-60
2023/10/12 16:54:21;;;;;;;;;;;;;;;;;;5119299;27;20438;-60
2023/10/12 16:56:47;;;;;;;;;;;;;;;;;;5116693;27;20409;-60
2023/10/12 16:59:15;;;;;;;;;;;;;;;;;;5122519;27;20302;-60
2023/10/12 17:01:41;;;;;;;;;;;;;;;;;;5111721;27;19951;-60
2023/10/12 17:04:11;;;;;;;;;;;;;;;;;;5113262;27;19930;-61
2023/10/12 17:06:38;;;;;;;;;;;;;;;;;;5101647;27;20014;-60
2023/10/12 17:09:05;;;;;;;;;;;;;;;;;;5112853;27;19933;-60
2023/10/12 17:11:31;;;;;;;;;;;;;;;;;;5113044;27;19935;-60
2023/10/12 17:13:57;;;;;;;;;;;;;;;;;;5124168;27;20385;-61
2023/10/12 17:16:30;;;;;;;;;;;;;;;;;;5115526;27;19930;-61
2023/10/12 17:18:57;;;;;;;;;;;;;;;;;;5116933;27;19976;-60
2023/10/12 17:21:23;;;;;;;;;;;;;;;;;;5114924;27;19928;-60
2023/10/12 17:23:50;;;;;;;;;;;;;;;;;;5117565;27;20025;-60
2023/10/12 17:26:17;;;;;;;;;;;;;;;;;;5118725;27;20425;-60
2023/10/12 17:28:43;;;;;;;;;;;;;;;;;;5114530;27;20349;-60
2023/10/12 17:31:10;;;;;;;;;;;;;;;;;;5116407;27;19923;-60
2023/10/12 17:33:37;;;;;;;;;;;;;;;;;;5115646;27;20128;-60
2023/10/12 17:36:03;;;;;;;;;;;;;;;;;;5113885;27;20366;-60